Marmande-Virazeil Airport

LFDM · Lot-et-Garonne, Nouvelle-Aquitaine, França

História da METAR LFDM · Marmande-Virazeil Airport

Abaixo você vê METARs dos últimos dias. Selecione um ano para navegar pelos METARs mais antigos, a partir do ano 2007.

29 de novembro de 2022

Hora Código Clima Temp. Visibilidade Tecto Vento METAR/SPECI
19:00
I
5 °C 3,8 km 5.200 ft Var 000° 0 kt METAR LFBE 291800Z AUTO 00000KT 3800 BR FEW013 BKN052 05/05 Q1021 TEMPO 0700 BCFG BKN008
18:30
M
6 °C 6 km 1.100 ft Var Var 2 kt METAR LFBE 291730Z AUTO VRB02KT 6000 OVC011 06/06 Q1021 TEMPO 0700 BCFG BKN008
18:00
I
5 °C 1,7 km 1.100 ft Var Var 2 kt METAR LFBE 291700Z AUTO VRB02KT 1700 BR BKN011 05/04 Q1020 BECMG 7000 NSW BKN015
17:30
L
6 °C 500 m - 230° 230° 3 kt METAR LFBE 291630Z AUTO 23003KT 1400 0500 R27/1500D BCFG FEW011 06/05 Q1020 BECMG 7000 NSW
17:00
V
8 °C 10 km+ - 220° 220° 2 kt METAR LFBE 291600Z AUTO 22002KT 9999 FEW018 08/06 Q1020 NOSIG
16:30
M
9 °C 10 km+ 2.000 ft 230° 230° 2 kt METAR LFBE 291530Z AUTO 23002KT 9999 SCT013 OVC020 09/07 Q1020 NOSIG
16:00
M
9 °C 10 km+ 1.200 ft Var Var 3 kt METAR LFBE 291500Z AUTO VRB03KT 9999 BKN012 OVC017 09/07 Q1020 BECMG BKN015
15:30
M
9 °C 10 km+ 1.000 ft Var Var 2 kt METAR LFBE 291430Z AUTO VRB02KT 9999 OVC010 09/08 Q1020 BECMG BKN015
15:00
I
8 °C 10 km+ 700 ft Var Var 1 kt METAR LFBE 291400Z AUTO VRB01KT 9999 OVC007 08/08 Q1020 BECMG BKN015
14:30
I
8 °C 10 km+ 600 ft Var Var 3 kt METAR LFBE 291330Z AUTO VRB03KT 9999 OVC006 08/08 Q1020 BECMG BKN015
14:00
I
8 °C 10 km+ 600 ft Var Var 2 kt METAR LFBE 291300Z AUTO VRB02KT 9999 OVC006 08/08 Q1020 TEMPO 4000 BR BECMG BKN015
13:30
L
8 °C 10 km+ 400 ft 300° 300° 3 kt METAR LFBE 291230Z AUTO 30003KT 260V340 9999 OVC004 08/08 Q1020 TEMPO 4000 BR BECMG BKN015
13:00
L
8 °C 5 km 200 ft Var Var 3 kt METAR LFBE 291200Z AUTO VRB03KT 5000 BR OVC002 08/08 Q1021 BECMG BKN015
12:30
L
7 °C 3,8 km 200 ft Var Var 3 kt METAR LFBE 291130Z AUTO VRB03KT 3800 BR OVC002 07/07 Q1020 BECMG 6000 NSW BKN015
12:00
L
7 °C 1 km - Var Var 2 kt METAR LFBE 291100Z AUTO VRB02KT 1200 1000 R27/1600U BCFG VV/// 07/07 Q1021 BECMG 6000 NSW BKN015
11:30
L
7 °C 1,6 km 300 ft Var Var 1 kt METAR LFBE 291030Z AUTO VRB01KT 1600 BR OVC003 07/07 Q1021 BECMG 6000 NSW BKN015
11:00
L
7 °C 900 m - Var Var 2 kt METAR LFBE 291000Z AUTO VRB02KT 0900 R27/1300D FG VV/// 07/07 Q1021 BECMG 6000 NSW BKN015
10:30
L
7 °C 1,7 km 200 ft Var Var 1 kt METAR LFBE 290930Z AUTO VRB01KT 1700 BR OVC002 07/07 Q1020 TEMPO VV/// BECMG 6000 NSW
10:00
L
7 °C 750 m - Var Var 2 kt METAR LFBE 290900Z AUTO VRB02KT 0750 R27/1200U FG VV/// 07/07 Q1020 TEMPO 0400 FG
09:30
L
6 °C 350 m - Var Var 2 kt METAR LFBE 290830Z AUTO VRB02KT 0350 R27/0450N FG VV/// 06/06 Q1020 TEMPO 3000 BR BKN002
09:00
L
6 °C 600 m - 070° 070° 2 kt METAR LFBE 290800Z AUTO 07002KT 0600 R27/0650D FG VV/// 06/06 Q1020 TEMPO 3000 BR BKN002
08:30
L
5 °C 7 km 300 ft Var 000° 0 kt METAR LFBE 290730Z AUTO 00000KT 7000 OVC003 05/05 Q1020 TEMPO 3000 BR
08:00
I
5 °C 6 km 500 ft 080° 080° 3 kt METAR LFBE 290700Z AUTO 08003KT 6000 OVC005 05/05 Q1019 TEMPO 0800 FG
07:30
I
4 °C 4,9 km 600 ft 060° 060° 3 kt METAR LFBE 290630Z AUTO 06003KT 4900 BR OVC006 04/04 Q1019 TEMPO VV/// BECMG 2000 BR
07:00
L
4 °C 5 km 200 ft Var 000° 0 kt METAR LFBE 290600Z AUTO 00000KT 5000 BR BKN002 BKN006 OVC048 04/04 Q1019 TEMPO 0800 FG VV///
06:30
L
4 °C 1,4 km 4.900 ft 150° 150° 2 kt METAR LFBE 290530Z AUTO 15002KT 1400 R27/1800N BR FEW004 BKN049 OVC058 04/04 Q1019
06:00
L
4 °C 750 m - Var Var 2 kt METAR LFBE 290500Z AUTO VRB02KT 0750 R27/1000U FG VV/// 04/04 Q1019
05:30
L
3 °C 700 m - 060° 060° 4 kt METAR LFBE 290430Z AUTO 06004KT 1200 0700 R27/1500D BCFG VV/// 03/03 Q1019
05:00
I
4 °C 2,8 km 2.900 ft 100° 100° 2 kt METAR LFBE 290400Z AUTO 10002KT 2800 BR FEW006 SCT012 BKN029 04/04 Q1018
04:30
I
4 °C 1,6 km 3.000 ft Var Var 2 kt METAR LFBE 290330Z AUTO VRB02KT 1600 BR FEW004/// BKN030/// BKN042/// //////TCU 04/04 Q1019
04:00
L
4 °C 1 km 4.600 ft 070° 070° 3 kt METAR LFBE 290300Z AUTO 07003KT 1000 R27/1200D BR SCT006/// BKN046/// BKN060/// ///TCU 04/04 Q1019
03:30
I
4 °C 1,5 km 5.600 ft 090° 090° 2 kt METAR LFBE 290230Z AUTO 09002KT 1500 BR FEW047 BKN056 OVC110 04/04 Q1019
03:00
M
3 °C 6 km 5.600 ft 060° 060° 3 kt METAR LFBE 290200Z AUTO 06003KT 6000 FEW045 OVC056 03/03 Q1019
02:30
L
3 °C 750 m 2.800 ft 070° 070° 3 kt METAR LFBE 290130Z AUTO 07003KT 0750 R27/1100U FG FEW002 SCT012 BKN028 03/03 Q1019
02:00
I
4 °C 3,3 km 3.300 ft 090° 090° 3 kt METAR LFBE 290100Z AUTO 09003KT 070V130 3300 BR FEW001 BKN033 OVC086 04/04 Q1019
01:30
L
3 °C 1 km - 070° 070° 5 kt METAR LFBE 290030Z AUTO 07005KT 1000 R27/1200D BR VV/// 03/03 Q1019
01:00
L
3 °C 500 m - 070° 070° 3 kt METAR LFBE 290000Z AUTO 07003KT 0500 R27/1400U FG VV/// 03/03 Q1019
00:30
L
3 °C 650 m - 070° 070° 2 kt METAR LFBE 282330Z AUTO 07002KT 0650 R27/0900U FG VV/// 03/03 Q1019
00:00
L
3 °C 200 m - 140° 140° 1 kt METAR LFBE 282300Z AUTO 14001KT 0250 0200 R27/0225N FG VV/// 03/03 Q1019

28 de novembro de 2022

Hora Código Clima Temp. Visibilidade Tecto Vento METAR/SPECI
23:30
L
3 °C 300 m - Var Var 1 kt METAR LFBE 282230Z AUTO VRB01KT 0300 R27/0400N FG VV/// 03/03 Q1019
23:00
L
3 °C 450 m - Var 000° 0 kt METAR LFBE 282200Z AUTO 00000KT 0500 0450 R27/0600N FG VV/// 03/03 Q1019
22:30
L
4 °C 900 m 1.200 ft Var Var 1 kt METAR LFBE 282130Z AUTO VRB01KT 1000 0900 R27/1400D BCFG BKN012 04/04 Q1019
22:00
L
4 °C 600 m 1.400 ft 070° 070° 2 kt METAR LFBE 282100Z AUTO 07002KT 0650 0600 R27/0800U FG BKN014 04/04 Q1019 TEMPO 0400 FG VV///
21:30
L
5 °C 550 m - Var 000° 0 kt METAR LFBE 282030Z AUTO 00000KT 0550 R27/1000U FG NSC 05/04 Q1019 BECMG 3000 BR
21:00
L
6 °C 700 m - Var 000° 0 kt METAR LFBE 282000Z AUTO 00000KT 1200 0700 R27/1400D BCFG FEW034 06/05 Q1019 BECMG 3000 BR
20:30
V
7 °C 10 km+ - 250° 250° 3 kt METAR LFBE 281930Z AUTO 25003KT 9999 FEW035 07/06 Q1018 BECMG 3000 BR
20:00
V
7 °C 10 km+ - 240° 240° 5 kt METAR LFBE 281900Z AUTO 24005KT 9999 NSC 07/07 Q1018 TEMPO FEW020CB BKN025TCU BECMG 3000 BR
19:30
V
8 °C 10 km+ - 240° 240° 5 kt METAR LFBE 281830Z AUTO 24005KT 9999 FEW033 SCT150 08/07 Q1018 TEMPO FEW020CB BKN025TCU BECMG 3000 BR
19:00
V
9 °C 10 km+ 4.300 ft 260° 260° 7 kt METAR LFBE 281800Z AUTO 26007KT 9999 BKN043 BKN058 OVC068 09/08 Q1018 TEMPO 3000 SHRA FEW020CB BKN025TCU
18:30
V
10 °C 10 km+ 4.000 ft 280° 280° 8 kt METAR LFBE 281730Z AUTO 28008KT 9999 RA FEW025/// BKN040/// BKN047/// ///CB 10/08 Q1018 BECMG NSW SCT030
18:00
V
10 °C 10 km+ - 270° 270° 5 kt METAR LFBE 281700Z AUTO 27005KT 9999 ///CB 10/08 Q1017 BECMG SCT030
17:30
V
10 °C 10 km+ - 280° 280° 8 kt METAR LFBE 281630Z AUTO 28008KT 9999 NSC 10/08 Q1017 NOSIG
17:00
V
10 °C 10 km+ - 210° 210° 3 kt METAR LFBE 281600Z AUTO 21003KT 9999 NSC 10/09 Q1017 BECMG 27010KT
16:30
V
10 °C 10 km+ - 270° 270° 2 kt METAR LFBE 281530Z AUTO 27002KT 9999 FEW027 10/09 Q1017 NOSIG
16:00
V
10 °C 10 km+ 3.500 ft Var Var 3 kt METAR LFBE 281500Z AUTO VRB03KT 9999 -RA BKN035/// BKN060/// BKN086/// ///CB 10/09 Q1017 TEMPO 3000 SHRA BECMG SCT030
15:30
I
10 °C 4,8 km 3.400 ft 250° 250° 9 kt METAR LFBE 281430Z AUTO 25009KT 220V280 4800 RA BR FEW025/// BKN034/// BKN050/// ///CB 10/08 Q1017 BECMG 9999 NSW SCT030
15:00
V
13 °C 10 km+ 5.400 ft 220° 220° 8 kt METAR LFBE 281400Z AUTO 22008KT 9999 SCT036/// SCT042/// BKN054/// //////CB 13/09 Q1016 TEMPO 3000 SHRA
14:30
V
14 °C 10 km+ 3.400 ft 260° 260° 10 kt METAR LFBE 281330Z AUTO 26010KT 9999 SCT028/// BKN034/// BKN043/// ///CB 14/08 Q1016 TEMPO 3000 SHRA
14:00
M
14 °C 10 km+ 2.700 ft 250° 250° 10 kt METAR LFBE 281300Z AUTO 25010KT 9999 BKN027/// BKN043/// BKN049/// ///TCU 14/09 Q1017 TEMPO 3000 SHRA FEW020CB BKN025TCU
13:30
V
14 °C 10 km+ - 230° 230° 9 kt METAR LFBE 281230Z AUTO 23009KT 190V250 9999 FEW023/// SCT058/// //////CB 14/10 Q1017 TEMPO 3000 SHRA
13:00
V
12 °C 10 km+ 8.600 ft 240° 240° 10 kt METAR LFBE 281200Z AUTO 24010KT 9999 -RA FEW020/// SCT060/// BKN086/// //////TCU 12/09 Q1017 TEMPO 3000 SHRA FEW020CB BKN025TCU
12:30
V
14 °C 10 km+ - 260° 260° 8 kt METAR LFBE 281130Z AUTO 26008KT 9999 FEW019/// //////TCU 14/09 Q1017 TEMPO 4000 -SHRA FEW015CB BKN020TCU
12:00
V
12 °C 10 km+ 3.300 ft 240° 240° 5 kt METAR LFBE 281100Z AUTO 24005KT 9999 BKN033/// BKN044/// BKN056/// ///TCU 12/09 Q1018 TEMPO 4000 -SHRA FEW015CB BKN020TCU
11:30
V
12 °C 10 km+ 3.000 ft 300° 300° 8 kt METAR LFBE 281030Z AUTO 30008KT 250V340 9999 SCT014/// BKN030/// BKN038/// ///CB 12/09 Q1018 TEMPO 4000 -SHRA
11:00
V
12 °C 10 km+ 4.000 ft 250° 250° 6 kt METAR LFBE 281000Z AUTO 25006KT 220V290 9999 SCT033/// BKN040/// BKN054/// //////TCU 12/09 Q1018 TEMPO 4000 -SHRA
10:30
V
12 °C 10 km+ - 260° 260° 4 kt METAR LFBE 280930Z AUTO 26004KT 230V290 9999 FEW037 12/09 Q1018 TEMPO 4000 -SHRA SCT010 BKN025TCU
10:00
V
11 °C 10 km+ - Var Var 3 kt METAR LFBE 280900Z AUTO VRB03KT 9999 FEW025 11/09 Q1017 TEMPO 4000 -SHRA SCT010 BKN025TCU
09:30
V
10 °C 10 km+ 21.000 ft Var Var 3 kt METAR LFBE 280830Z AUTO VRB03KT 9999 SCT033/// OVC210/// //////TCU 10/09 Q1017 TEMPO 4000 -SHRA
09:00
V
9 °C 10 km+ 20.000 ft 270° 270° 2 kt METAR LFBE 280800Z AUTO 27002KT 9999 FEW038 BKN200 09/07 Q1017 TEMPO 4000 -SHRA SCT010 BKN025TCU
08:30
V
10 °C 10 km+ 5.200 ft 260° 260° 5 kt METAR LFBE 280730Z AUTO 26005KT 9999 FEW030 SCT038 OVC052 10/09 Q1017 TEMPO 4000 -SHRA SCT010 BKN025TCU
08:00
V
10 °C 10 km+ 6.200 ft 250° 250° 5 kt METAR LFBE 280700Z AUTO 25005KT 9999 FEW031/// BKN062/// BKN080/// //////TCU 10/09 Q1017 TEMPO 4000 -SHRA
07:30
V
10 °C 10 km+ 8.800 ft 250° 250° 6 kt METAR LFBE 280630Z AUTO 25006KT 9999 FEW032/// BKN088/// OVC170/// //////TCU 10/09 Q1017 TEMPO 4000 -SHRA
07:00
V
10 °C 10 km+ 10.000 ft 240° 240° 6 kt METAR LFBE 280600Z AUTO 24006KT 9999 FEW034 BKN100 OVC190 10/09 Q1017 TEMPO 4000 -SHRA SCT010 BKN025TCU
06:30
V
11 °C 10 km+ 18.000 ft 260° 260° 7 kt METAR LFBE 280530Z AUTO 26007KT 230V290 9999 FEW024 SCT100 OVC180 11/10 Q1016 TEMPO 4000 -SHRA SCT010 BKN025TCU
06:00
V
11 °C 10 km+ 6.600 ft 250° 250° 6 kt METAR LFBE 280500Z AUTO 25006KT 9999 FEW027 SCT050 BKN066 11/10 Q1016
05:30
V
11 °C 10 km+ 6.600 ft 240° 240° 6 kt METAR LFBE 280430Z AUTO 24006KT 9999 FEW030 SCT036 BKN066 11/10 Q1016
05:00
V
11 °C 10 km+ 3.300 ft 230° 230° 6 kt METAR LFBE 280400Z AUTO 23006KT 9999 FEW012 SCT017 BKN033 11/11 Q1016
04:30
M
11 °C 10 km+ 2.200 ft 250° 250° 5 kt METAR LFBE 280330Z AUTO 25005KT 200V310 9999 FEW015/// BKN022/// BKN082/// //////TCU 11/11 Q1016
04:00
V
11 °C 10 km+ 3.500 ft 220° 220° 3 kt METAR LFBE 280300Z AUTO 22003KT 170V250 9999 -RA SCT020/// BKN035/// BKN070/// ///CB 11/10 Q1016
03:30
V
11 °C 10 km+ 6.000 ft 220° 220° 7 kt METAR LFBE 280230Z AUTO 22007KT 9999 -RA FEW019/// SCT037/// BKN060/// ///TCU 11/11 Q1016
03:00
V
11 °C 10 km+ 6.400 ft 200° 200° 5 kt METAR LFBE 280200Z AUTO 20005KT 130V230 9999 -RA FEW015/// BKN064/// BKN078/// //////CB 11/11 Q1015
02:30
V
11 °C 10 km+ - 250° 250° 4 kt METAR LFBE 280130Z AUTO 25004KT 9999 -RA ///TCU 11/11 Q1016
02:00
I
11 °C 8 km 900 ft 260° 260° 7 kt METAR LFBE 280100Z AUTO 26007KT 220V280 8000 RA BKN009/// BKN064/// OVC074/// ///CB 11/11 Q1015
01:30
I
11 °C 7 km 700 ft 270° 270° 6 kt METAR LFBE 280030Z AUTO 27006KT 220V290 7000 RA BKN007/// OVC013/// ///CB 11/11 Q1016
01:00
M
11 °C 6 km 2.900 ft 180° 180° 7 kt METAR LFBE 280000Z AUTO 18007KT 150V220 6000 +RA FEW013/// BKN029/// BKN035/// //////CB 11/11 Q1016
00:30
M
11 °C 8 km 1.400 ft 150° 150° 7 kt METAR LFBE 272330Z AUTO 15007KT 8000 RA BKN014/// BKN030/// BKN050/// ///CB 11/10 Q1016
00:00
M
11 °C 6 km 1.400 ft 170° 170° 4 kt METAR LFBE 272300Z AUTO 17004KT 140V200 6000 RA BKN014/// BKN022/// OVC068/// //////CB 11/10 Q1016

27 de novembro de 2022

Hora Código Clima Temp. Visibilidade Tecto Vento METAR/SPECI
23:30
M
11 °C 5 km 1.600 ft Var Var 2 kt METAR LFBE 272230Z AUTO VRB02KT 5000 RA BR BKN016/// OVC036/// //////CB 11/10 Q1016
23:00
M
11 °C 10 km+ 1.800 ft 170° 170° 6 kt METAR LFBE 272200Z AUTO 17006KT 9999 -RA BKN018/// BKN036/// OVC050/// //////CB 11/09 Q1016
22:30
M
11 °C 10 km+ 1.900 ft 170° 170° 6 kt METAR LFBE 272130Z AUTO 17006KT 140V200 9999 -RA BKN019/// BKN049/// BKN060/// //////TCU 11/09 Q1016
22:00
V
11 °C 10 km+ - 160° 160° 3 kt METAR LFBE 272100Z AUTO 16003KT 120V220 CAVOK 11/08 Q1016 TEMPO 3000 RA BKN005 OVC020
21:30
V
11 °C 10 km+ 8.600 ft 160° 160° 10 kt METAR LFBE 272030Z AUTO 16010KT 9999 SCT025 BKN086 BKN160 11/08 Q1016 TEMPO 3000 RA BKN005 OVC020
21:00
V
11 °C 10 km+ 3.100 ft 170° 170° 7 kt METAR LFBE 272000Z AUTO 17007KT 140V200 9999 OVC031 11/08 Q1016 NOSIG
20:30
V
10 °C 10 km+ 23.000 ft 140° 140° 7 kt METAR LFBE 271930Z AUTO 14007KT 9999 FEW034 SCT130 BKN230 10/07 Q1016 NOSIG
20:00
V
10 °C 10 km+ - 180° 180° 5 kt METAR LFBE 271900Z AUTO 18005KT 140V210 CAVOK 10/07 Q1017 NOSIG
19:30
V
10 °C 10 km+ - 150° 150° 5 kt METAR LFBE 271830Z AUTO 15005KT 100V180 CAVOK 10/07 Q1017 NOSIG
19:00
V
11 °C 10 km+ - 170° 170° 5 kt METAR LFBE 271800Z AUTO 17005KT 130V240 CAVOK 11/08 Q1017 NOSIG
18:30
V
10 °C 10 km+ - 150° 150° 3 kt METAR LFBE 271730Z AUTO 15003KT 080V210 CAVOK 10/07 Q1017 NOSIG
18:00
V
10 °C 10 km+ - Var Var 2 kt METAR LFBE 271700Z AUTO VRB02KT CAVOK 10/07 Q1017 NOSIG
17:30
V
10 °C 10 km+ - Var Var 3 kt METAR LFBE 271630Z AUTO VRB03KT CAVOK 10/06 Q1017 NOSIG
17:00
V
11 °C 10 km+ - 130° 130° 3 kt METAR LFBE 271600Z AUTO 13003KT 100V170 CAVOK 11/07 Q1017 NOSIG
16:30
V
12 °C 10 km+ - 150° 150° 6 kt METAR LFBE 271530Z AUTO 15006KT 120V180 CAVOK 12/07 Q1017 NOSIG
16:00
V
12 °C 10 km+ - 140° 140° 6 kt METAR LFBE 271500Z AUTO 14006KT 100V160 CAVOK 12/07 Q1018 NOSIG
15:30
V
12 °C 10 km+ - 140° 140° 8 kt METAR LFBE 271430Z AUTO 14008KT 110V180 CAVOK 12/07 Q1018 NOSIG
15:00
V
12 °C 10 km+ - 140° 140° 8 kt METAR LFBE 271400Z AUTO 14008KT CAVOK 12/07 Q1018 NOSIG
14:30
V
12 °C 10 km+ - 140° 140° 9 kt METAR LFBE 271330Z AUTO 14009KT CAVOK 12/06 Q1018 NOSIG
14:00
V
11 °C 10 km+ - 140° 140° 7 kt METAR LFBE 271300Z AUTO 14007KT 090V170 CAVOK 11/06 Q1019 NOSIG
13:30
V
11 °C 10 km+ - 130° 130° 9 kt METAR LFBE 271230Z AUTO 13009KT 100V170 CAVOK 11/06 Q1019 NOSIG
13:00
V
11 °C 10 km+ - 130° 130° 7 kt METAR LFBE 271200Z AUTO 13007KT 100V160 CAVOK 11/05 Q1020 NOSIG
12:30
V
11 °C 10 km+ - 130° 130° 9 kt METAR LFBE 271130Z AUTO 13009KT 100V160 CAVOK 11/05 Q1020 NOSIG
12:00
V
10 °C 10 km+ - 130° 130° 7 kt METAR LFBE 271100Z AUTO 13007KT 080V160 CAVOK 10/05 Q1021 NOSIG
11:30
V
9 °C 10 km+ - 120° 120° 8 kt METAR LFBE 271030Z AUTO 12008KT 080V160 CAVOK 09/04 Q1021 NOSIG
11:00
V
8 °C 10 km+ - 120° 120° 5 kt METAR LFBE 271000Z AUTO 12005KT 080V160 CAVOK 08/05 Q1022 NOSIG

Nós e terceiros acompanhamos seu comportamento na internet em nosso site com cookies. Se você continuar, nós assumimos que você concorda com nosso política de cookies.